Time;durP1;ratioP1;P1;durP2;ratioP2;P2;SDS_P1;SDS_P2;PMS_P1;PMS_P2;Temp;Humidity;BMP_temperature;BMP_pressure;BME280_temperature;BME280_humidity;BME280_pressure;Samples;Min_cycle;Max_cycle;Signal;HPM_P1;HPM_P2
2023/07/18 00:01:17;;;;;;;3.37;1.87;;;16.50;1.00;;;;;;5075580;28;20177;-82
2023/07/18 00:03:43;;;;;;;4.03;1.90;;;16.50;1.00;;;;;;5075073;28;20627;-83
2023/07/18 00:06:08;;;;;;;3.83;1.70;;;16.40;1.00;;;;;;5075368;28;20616;-81
2023/07/18 00:08:34;;;;;;;3.03;1.50;;;16.40;1.00;;;;;;5075076;28;20193;-81
2023/07/18 00:11:00;;;;;;;3.33;1.90;;;16.40;1.00;;;;;;5075393;28;20565;-81
2023/07/18 00:13:26;;;;;;;3.77;2.10;;;16.30;1.00;;;;;;5074694;28;20192;-81
2023/07/18 00:15:52;;;;;;;4.33;1.83;;;16.20;1.00;;;;;;5074361;28;20215;-82
2023/07/18 00:18:21;;;;;;;4.83;1.80;;;16.20;1.00;;;;;;5073860;28;20192;-82
2023/07/18 00:20:47;;;;;;;5.50;1.80;;;16.20;1.00;;;;;;5073845;28;20204;-80
2023/07/18 00:23:12;;;;;;;5.13;1.90;;;16.20;1.00;;;;;;5074531;28;20223;-79
2023/07/18 00:25:38;;;;;;;4.80;1.97;;;16.20;1.00;;;;;;5074486;28;20572;-81
2023/07/18 00:28:04;;;;;;;2.93;1.90;;;16.20;1.00;;;;;;5073887;28;20259;-81
2023/07/18 00:30:30;;;;;;;3.60;2.10;;;16.10;1.00;;;;;;5074004;28;20291;-81
2023/07/18 00:32:59;;;;;;;5.37;2.17;;;16.10;1.00;;;;;;5055569;28;20542;-81
2023/07/18 00:35:26;;;;;;;8.33;2.43;;;16.00;1.00;;;;;;5073593;28;20176;-80
2023/07/18 00:37:52;;;;;;;3.20;1.93;;;16.10;1.00;;;;;;5073907;28;20222;-81
2023/07/18 00:40:18;;;;;;;4.13;2.07;;;16.10;1.00;;;;;;5073218;28;20232;-81
2023/07/18 00:42:47;;;;;;;7.03;2.20;;;16.10;1.00;;;;;;5073512;28;20183;-80
2023/07/18 00:45:13;;;;;;;2.63;1.80;;;16.10;1.00;;;;;;5073679;28;20188;-82
2023/07/18 00:47:41;;;;;;;4.80;2.00;;;16.10;1.00;;;;;;5073282;28;20184;-80
2023/07/18 00:50:09;;;;;;;4.30;1.90;;;16.00;1.00;;;;;;5073635;28;20204;-81
2023/07/18 00:52:49;;;;;;;3.57;1.73;;;16.00;1.00;;;;;;5073533;28;20191;-81
2023/07/18 00:55:16;;;;;;;5.97;1.80;;;15.90;1.00;;;;;;5073189;28;20184;-81
2023/07/18 00:57:44;;;;;;;5.80;1.93;;;15.90;1.00;;;;;;5073386;28;20175;-81
2023/07/18 01:00:11;;;;;;;4.63;2.10;;;15.90;1.00;;;;;;5073563;28;20192;-81
2023/07/18 01:02:38;;;;;;;5.80;2.00;;;15.90;1.00;;;;;;5073192;28;20172;-79
2023/07/18 01:05:05;;;;;;;4.73;2.27;;;15.90;1.00;;;;;;5055807;28;20264;-81
2023/07/18 01:07:30;;;;;;;4.07;2.00;;;15.80;1.00;;;;;;5073393;28;20192;-81
2023/07/18 01:10:25;;;;;;;3.57;1.83;;;15.80;1.00;;;;;;5073337;28;20212;-82
2023/07/18 01:12:54;;;;;;;5.13;2.13;;;15.80;1.00;;;;;;5073223;28;20226;-80
2023/07/18 01:15:20;;;;;;;8.23;1.80;;;15.70;2.50;;;;;;5055363;28;20169;-80
2023/07/18 01:17:47;;;;;;;5.20;1.80;;;15.70;1.00;;;;;;5072961;28;20582;-80
2023/07/18 01:20:18;;;;;;;8.47;2.17;;;15.60;1.20;;;;;;5073131;28;20177;-83
2023/07/18 01:22:48;;;;;;;3.63;2.23;;;15.60;2.50;;;;;;5073270;28;20327;-80
2023/07/18 01:25:22;;;;;;;3.97;2.03;;;15.60;2.60;;;;;;5073205;28;20180;-80
2023/07/18 01:27:51;;;;;;;5.50;1.90;;;15.60;4.30;;;;;;5073243;28;20168;-81
2023/07/18 01:30:19;;;;;;;5.60;1.90;;;15.60;6.80;;;;;;5073194;28;20204;-80
2023/07/18 01:32:48;;;;;;;4.57;1.50;;;15.50;3.40;;;;;;5076121;28;20169;-80
2023/07/18 01:35:15;;;;;;;2.70;1.90;;;15.40;5.90;;;;;;5076848;28;20180;-83
2023/07/18 01:37:44;;;;;;;4.43;1.90;;;15.40;9.80;;;;;;5077185;28;20164;-81
2023/07/18 01:40:15;;;;;;;4.53;2.00;;;15.40;12.00;;;;;;5076817;28;20220;-80
2023/07/18 01:42:45;;;;;;;3.97;1.80;;;15.40;14.20;;;;;;5077108;28;20169;-81
2023/07/18 01:45:12;;;;;;;4.97;1.83;;;15.30;16.30;;;;;;5058749;28;20238;-80
2023/07/18 01:47:38;;;;;;;2.53;1.90;;;15.30;17.60;;;;;;5076761;28;20180;-81
2023/07/18 01:50:06;;;;;;;6.87;2.23;;;15.30;17.70;;;;;;5076865;28;20291;-82
2023/07/18 01:52:32;;;;;;;3.57;2.20;;;15.30;20.10;;;;;;5076835;28;20226;-81
2023/07/18 01:55:03;;;;;;;9.73;2.20;;;15.20;20.70;;;;;;5076638;28;20230;-81
2023/07/18 01:57:46;;;;;;;5.70;2.50;;;15.20;23.60;;;;;;5076621;28;20172;-81
2023/07/18 02:00:19;;;;;;;4.73;1.97;;;15.30;23.30;;;;;;5076450;28;20172;-81
2023/07/18 02:02:50;;;;;;;6.87;2.23;;;15.20;24.30;;;;;;5076958;28;20251;-82
2023/07/18 02:05:18;;;;;;;3.37;2.13;;;15.20;26.90;;;;;;5076744;28;20707;-81
2023/07/18 02:07:44;;;;;;;7.27;2.63;;;15.20;29.10;;;;;;5076663;28;20184;-81
2023/07/18 02:10:10;;;;;;;4.53;1.90;;;15.10;28.20;;;;;;5058443;28;20212;-81
2023/07/18 02:12:36;;;;;;;3.77;2.03;;;15.10;28.80;;;;;;5076404;28;20161;-81
2023/07/18 02:15:05;;;;;;;4.53;2.30;;;15.10;28.80;;;;;;5076340;28;20177;-80
2023/07/18 02:17:31;;;;;;;5.60;2.47;;;15.10;28.70;;;;;;5076597;28;20248;-80
2023/07/18 02:19:57;;;;;;;3.37;2.00;;;15.00;31.00;;;;;;5076251;28;20165;-81
2023/07/18 02:22:23;;;;;;;6.60;2.33;;;15.10;30.60;;;;;;5076098;28;20175;-79
2023/07/18 02:24:48;;;;;;;6.10;2.30;;;15.00;29.20;;;;;;5076155;28;20182;-81
2023/07/18 02:27:14;;;;;;;5.83;1.87;;;15.00;30.20;;;;;;5076351;28;20169;-80
2023/07/18 02:29:39;;;;;;;3.87;2.13;;;15.00;28.80;;;;;;5075631;28;20727;-81
2023/07/18 02:32:05;;;;;;;4.13;1.80;;;15.00;25.60;;;;;;5076227;28;20184;-83
2023/07/18 02:34:31;;;;;;;3.20;1.90;;;14.90;28.10;;;;;;5076142;28;20172;-82
2023/07/18 02:36:57;;;;;;;3.63;2.03;;;14.90;29.90;;;;;;5075788;28;20200;-82
2023/07/18 02:39:22;;;;;;;7.43;2.30;;;15.00;29.70;;;;;;5075405;28;20632;-81
2023/07/18 02:41:48;;;;;;;4.60;2.10;;;14.90;28.30;;;;;;5075953;28;20183;-80
2023/07/18 02:44:13;;;;;;;3.70;1.70;;;15.00;30.00;;;;;;5056677;28;20173;-81
2023/07/18 02:46:39;;;;;;;5.63;1.77;;;15.00;29.50;;;;;;5075830;28;20200;-81
2023/07/18 02:49:05;;;;;;;2.13;1.63;;;15.00;29.50;;;;;;5075896;28;20576;-81
2023/07/18 02:51:30;;;;;;;4.13;2.20;;;14.90;28.50;;;;;;5075711;28;20280;-80
2023/07/18 02:53:56;;;;;;;5.60;2.13;;;14.90;30.70;;;;;;5075296;28;20172;-80
2023/07/18 02:56:22;;;;;;;5.80;2.07;;;14.80;32.40;;;;;;5075748;28;20654;-80
2023/07/18 02:58:49;;;;;;;2.20;1.73;;;14.80;34.90;;;;;;5075376;28;20613;-81
2023/07/18 03:01:14;;;;;;;4.40;2.00;;;14.80;35.60;;;;;;5075688;28;20180;-80
2023/07/18 03:03:40;;;;;;;7.10;2.20;;;14.80;36.10;;;;;;5075484;28;20175;-80
2023/07/18 03:06:07;;;;;;;5.13;2.20;;;14.80;35.40;;;;;;5075362;28;20168;-81
2023/07/18 03:08:33;;;;;;;4.03;2.30;;;14.70;42.00;;;;;;5057172;28;20563;-79
2023/07/18 03:11:05;;;;;;;5.00;2.10;;;14.80;46.60;;;;;;5075440;28;20288;-80
2023/07/18 03:13:31;;;;;;;7.63;1.97;;;14.80;41.40;;;;;;5074796;28;20644;-79
2023/07/18 03:15:57;;;;;;;4.87;2.03;;;14.80;41.80;;;;;;5075095;28;20177;-79
2023/07/18 03:18:23;;;;;;;3.67;2.13;;;14.80;42.90;;;;;;5075241;28;20173;-80
2023/07/18 03:20:49;;;;;;;5.30;2.10;;;14.70;44.60;;;;;;5074928;28;20180;-80
2023/07/18 03:23:15;;;;;;;4.43;2.30;;;14.60;48.00;;;;;;5074778;28;20180;-80
2023/07/18 03:25:41;;;;;;;4.27;2.30;;;14.60;49.60;;;;;;5075321;28;20237;-80
2023/07/18 03:28:08;;;;;;;6.27;2.40;;;14.60;52.70;;;;;;5074644;28;20176;-80
2023/07/18 03:30:34;;;;;;;2.93;2.20;;;14.50;55.00;;;;;;5074870;28;20220;-79
2023/07/18 03:32:59;;;;;;;8.37;2.40;;;14.50;56.10;;;;;;5074643;28;20504;-81
2023/07/18 03:35:25;;;;;;;3.80;2.37;;;14.50;58.20;;;;;;5074650;28;20266;-81
2023/07/18 03:37:51;;;;;;;6.13;2.50;;;14.60;57.50;;;;;;5074669;28;20224;-79
2023/07/18 03:40:16;;;;;;;6.30;2.43;;;14.50;57.20;;;;;;5074022;28;20749;-79
2023/07/18 03:42:43;;;;;;;5.27;2.27;;;14.50;57.60;;;;;;5074332;28;20169;-80
2023/07/18 03:45:10;;;;;;;5.53;2.50;;;14.50;57.40;;;;;;5074363;28;20226;-80
2023/07/18 03:47:37;;;;;;;3.53;2.13;;;14.50;61.90;;;;;;5074351;28;20169;-80
2023/07/18 03:50:03;;;;;;;6.70;2.83;;;14.50;61.60;;;;;;5074104;28;20321;-80
2023/07/18 03:52:28;;;;;;;11.47;2.57;;;14.40;63.70;;;;;;5056241;28;20172;-80
2023/07/18 03:54:54;;;;;;;5.87;2.50;;;14.50;63.70;;;;;;5074243;28;20711;-81
2023/07/18 03:57:20;;;;;;;3.33;2.30;;;14.60;60.70;;;;;;5073918;28;20222;-80
2023/07/18 03:59:45;;;;;;;5.57;2.20;;;14.60;59.70;;;;;;5073925;28;20211;-81
2023/07/18 04:02:14;;;;;;;4.70;2.70;;;14.60;62.20;;;;;;5056053;28;20259;-80
2023/07/18 04:04:41;;;;;;;4.80;2.40;;;14.60;60.00;;;;;;5073719;28;20236;-81
2023/07/18 04:07:07;;;;;;;5.90;2.43;;;14.70;57.30;;;;;;5073850;28;20192;-81
2023/07/18 04:09:32;;;;;;;9.20;2.87;;;14.80;56.20;;;;;;5074446;28;20168;-82
2023/07/18 04:11:58;;;;;;;4.10;2.30;;;15.00;53.50;;;;;;5075675;28;20184;-81
2023/07/18 04:14:23;;;;;;;5.17;2.57;;;15.20;41.70;;;;;;5076793;28;20168;-81
2023/07/18 04:16:49;;;;;;;4.13;2.20;;;15.40;38.60;;;;;;5076180;28;20632;-82
2023/07/18 04:19:15;;;;;;;4.13;2.30;;;15.60;32.50;;;;;;5080587;28;20169;-82
2023/07/18 04:21:40;;;;;;;4.97;2.20;;;16.20;26.10;;;;;;5084247;28;20160;-82
2023/07/18 04:24:08;;;;;;;4.77;2.07;;;16.90;1.00;;;;;;5084821;28;20176;-83
2023/07/18 04:26:34;;;;;;;5.53;2.30;;;17.70;1.00;;;;;;5090306;28;20171;-83
2023/07/18 04:29:00;;;;;;;4.57;2.13;;;18.40;1.00;;;;;;5069940;28;20184;-83
2023/07/18 04:31:26;;;;;;;2.97;2.03;;;18.80;1.00;;;;;;5092365;28;20184;-84
2023/07/18 04:33:58;;;;;;;8.17;2.50;;;19.10;1.00;;;;;;5093287;28;20172;-85
2023/07/18 04:36:25;;;;;;;8.60;2.72;;;19.50;1.00;;;;;;5094271;28;20207;-86
2023/07/18 04:38:50;;;;;;;6.53;2.28;;;20.20;1.00;;;;;;5093289;28;20168;-88
2023/07/18 04:41:16;;;;;;;5.53;2.15;;;20.80;99.90;;;;;;5053128;28;20225;-86
2023/07/18 04:43:41;;;;;;;5.32;2.33;;;21.20;1.00;;;;;;5049080;28;20227;-88
2023/07/18 04:46:08;;;;;;;3.90;2.55;;;21.60;99.90;;;;;;5047189;28;20180;-87
2023/07/18 04:48:34;;;;;;;10.10;2.42;;;21.80;99.90;;;;;;5045303;28;20182;-86
2023/07/18 04:51:01;;;;;;;5.30;2.55;;;22.20;99.90;;;;;;5040116;28;20291;-87
2023/07/18 04:53:30;;;;;;;9.52;2.55;;;22.80;21.40;;;;;;5037905;28;20531;-86
2023/07/18 04:55:56;;;;;;;4.38;2.20;;;22.90;94.00;;;;;;5035843;28;20180;-86
2023/07/18 04:58:24;;;;;;;3.90;2.22;;;23.30;1.00;;;;;;5034706;28;20173;-88
2023/07/18 05:00:51;;;;;;;4.22;2.15;;;24.00;99.90;;;;;;5034527;28;20166;-85
2023/07/18 05:03:17;;;;;;;4.85;2.35;;;24.70;1.00;;;;;;5034193;28;20188;-85
2023/07/18 05:05:43;;;;;;;4.80;2.40;;;24.90;99.90;;;;;;5032786;28;20257;-86
2023/07/18 05:08:08;;;;;;;3.05;2.10;;;25.90;1.00;;;;;;5033420;28;20194;-85
2023/07/18 05:10:34;;;;;;;2.88;2.08;;;26.50;99.90;;;;;;5032750;28;20538;-84
2023/07/18 05:13:00;;;;;;;11.00;2.47;;;27.20;1.00;;;;;;5033861;28;20589;-83
2023/07/18 05:15:25;;;;;;;5.10;2.30;;;27.40;1.00;;;;;;5033900;28;20177;-83
2023/07/18 05:17:51;;;;;;;4.45;2.38;;;28.00;1.00;;;;;;5032875;28;20627;-82
2023/07/18 05:20:17;;;;;;;4.45;2.28;;;27.60;1.00;;;;;;5032639;28;20666;-83
2023/07/18 05:22:44;;;;;;;4.43;2.40;;;28.20;1.00;;;;;;5032843;28;20256;-82
2023/07/18 05:25:11;;;;;;;6.28;2.30;;;28.50;99.90;;;;;;5032688;28;20312;-82
2023/07/18 05:27:38;;;;;;;4.68;2.40;;;27.60;1.00;;;;;;5032817;28;20663;-82
2023/07/18 05:30:10;;;;;;;6.07;2.45;;;28.20;1.00;;;;;;5032633;28;20237;-82
2023/07/18 05:32:35;;;;;;;4.40;2.22;;;28.00;1.00;;;;;;5033149;28;20178;-80
2023/07/18 05:35:01;;;;;;;4.68;2.58;;;27.90;1.00;;;;;;5032861;28;20192;-80
2023/07/18 05:37:28;;;;;;;5.50;2.60;;;28.40;1.00;;;;;;5032438;28;20633;-81
2023/07/18 05:39:54;;;;;;;3.85;2.10;;;29.30;99.90;;;;;;5044995;28;20224;-81
2023/07/18 05:42:20;;;;;;;4.10;2.17;;;29.90;99.90;;;;;;5072171;28;20255;-79
2023/07/18 05:44:46;;;;;;;6.70;2.50;;;30.60;99.90;;;;;;5072690;28;20204;-80
2023/07/18 05:47:11;;;;;;;4.95;2.30;;;30.50;99.90;;;;;;5072439;28;20168;-81
2023/07/18 05:49:37;;;;;;;5.07;2.30;;;30.70;99.90;;;;;;5072196;28;20589;-80
2023/07/18 05:52:03;;;;;;;4.80;2.42;;;31.30;99.90;;;;;;5071625;28;20165;-80
2023/07/18 05:54:30;;;;;;;5.28;2.20;;;30.30;99.90;;;;;;5072380;28;20176;-82
2023/07/18 05:56:58;;;;;;;4.60;2.28;;;30.50;99.90;;;;;;5072266;28;20173;-81
2023/07/18 05:59:24;;;;;;;3.25;2.22;;;30.60;99.90;;;;;;5053887;28;20168;-81
2023/07/18 06:01:50;;;;;;;5.63;2.63;;;29.40;99.90;;;;;;5054309;28;20176;-81
2023/07/18 06:04:15;;;;;;;5.18;2.80;;;28.90;99.90;;;;;;5072093;28;20671;-81
2023/07/18 06:06:43;;;;;;;4.10;2.60;;;28.10;99.90;;;;;;5071515;28;20176;-80
2023/07/18 06:09:09;;;;;;;4.57;2.58;;;27.60;99.90;;;;;;5054130;28;20262;-80
2023/07/18 06:11:35;;;;;;;4.30;2.90;;;27.90;99.90;;;;;;5071559;28;20204;-79
2023/07/18 06:14:01;;;;;;;4.80;2.45;;;28.60;99.90;;;;;;5071980;28;20647;-80
2023/07/18 06:16:27;;;;;;;4.57;2.20;;;29.60;99.90;;;;;;5072182;28;20188;-81
2023/07/18 06:18:53;;;;;;;4.47;2.40;;;30.30;99.90;;;;;;5073799;28;20177;-80
2023/07/18 06:21:19;;;;;;;5.75;2.35;;;31.40;99.90;;;;;;5075296;28;20244;-81
2023/07/18 06:23:45;;;;;;;5.40;2.17;;;32.10;99.90;;;;;;5074734;28;20172;-82
2023/07/18 06:26:10;;;;;;;5.78;2.28;;;31.70;99.90;;;;;;5075150;28;20635;-81
2023/07/18 06:28:36;;;;;;;6.47;2.35;;;31.90;99.90;;;;;;5075357;28;20211;-82
2023/07/18 06:31:02;;;;;;;4.97;2.40;;;32.00;99.90;;;;;;5075254;28;20205;-81
2023/07/18 06:33:28;;;;;;;4.15;2.03;;;32.00;99.90;;;;;;5075508;28;20169;-81
2023/07/18 06:35:55;;;;;;;5.65;2.40;;;32.40;99.90;;;;;;5057442;28;20176;-82
2023/07/18 06:38:21;;;;;;;4.72;2.22;;;32.30;99.90;;;;;;5075168;28;20175;-81
2023/07/18 06:40:47;;;;;;;7.00;2.50;;;32.60;99.90;;;;;;5074946;28;20220;-81
2023/07/18 06:43:13;;;;;;;5.28;2.40;;;32.10;99.90;;;;;;5074681;28;20593;-81
2023/07/18 06:45:39;;;;;;;6.93;2.10;;;32.60;99.90;;;;;;5075156;28;20169;-81
2023/07/18 06:48:05;;;;;;;5.65;1.98;;;32.90;99.90;;;;;;5074745;28;20169;-83
2023/07/18 06:50:30;;;;;;;5.15;1.85;;;33.90;99.50;;;;;;5074628;28;20211;-81
2023/07/18 06:52:56;;;;;;;4.13;2.17;;;34.70;79.00;;;;;;5074742;28;20171;-82
2023/07/18 06:55:22;;;;;;;4.63;2.08;;;34.40;54.40;;;;;;5074522;28;20263;-83
2023/07/18 06:57:48;;;;;;;3.80;1.85;;;34.70;39.60;;;;;;5074509;28;20165;-82
2023/07/18 07:00:14;;;;;;;3.42;1.58;;;34.70;29.40;;;;;;5074843;28;20260;-83
2023/07/18 07:02:40;;;;;;;5.10;1.60;;;34.40;12.10;;;;;;5075158;28;20568;-83
2023/07/18 07:05:06;;;;;;;3.15;1.70;;;35.30;11.60;;;;;;5072841;28;20161;-82
2023/07/18 07:07:32;;;;;;;3.97;1.70;;;35.20;1.00;;;;;;5073935;28;20713;-82
2023/07/18 07:09:57;;;;;;;6.55;2.05;;;35.40;1.00;;;;;;5074080;28;20208;-79
2023/07/18 07:12:23;;;;;;;3.00;1.42;;;36.30;1.00;;;;;;5072974;28;20200;-78
2023/07/18 07:14:48;;;;;;;6.57;1.75;;;36.20;1.00;;;;;;5063503;28;20184;-79
2023/07/18 07:17:14;;;;;;;2.90;1.60;;;36.20;1.00;;;;;;5057792;28;20177;-81
2023/07/18 07:19:40;;;;;;;2.78;1.40;;;35.10;1.00;;;;;;5064544;28;20316;-79
2023/07/18 07:22:05;;;;;;;1.73;1.20;;;34.30;1.00;;;;;;5053681;28;20169;-79
2023/07/18 07:24:31;;;;;;;2.67;1.67;;;35.00;1.00;;;;;;5052580;28;20226;-79
2023/07/18 07:26:57;;;;;;;4.57;1.25;;;35.50;1.00;;;;;;5057674;28;20521;-80
2023/07/18 07:29:22;;;;;;;1.85;1.17;;;34.50;1.00;;;;;;5056705;28;20732;-79
2023/07/18 07:31:48;;;;;;;2.15;1.20;;;33.20;1.00;;;;;;5061528;28;21178;-77
2023/07/18 07:34:13;;;;;;;1.73;1.10;;;32.10;1.00;;;;;;5059412;28;20531;-77
2023/07/18 07:36:39;;;;;;;2.55;1.20;;;30.60;1.00;;;;;;5059596;28;20190;-76
2023/07/18 07:39:05;;;;;;;1.73;1.17;;;30.00;9.50;;;;;;5055408;28;20172;-76
2023/07/18 07:41:30;;;;;;;2.22;1.23;;;30.10;27.80;;;;;;5055135;28;20696;-74
2023/07/18 07:43:57;;;;;;;3.17;1.23;;;30.50;33.30;;;;;;5068680;28;20180;-75
2023/07/18 07:46:22;;;;;;;3.25;1.33;;;29.00;60.20;;;;;;5062020;28;20212;-75
2023/07/18 07:48:48;;;;;;;1.95;1.10;;;28.80;99.90;;;;;;5063064;28;20633;-76
2023/07/18 07:51:16;;;;;;;4.35;1.90;;;29.40;99.90;;;;;;5054032;28;20299;-75
2023/07/18 07:53:43;;;;;;;3.08;1.40;;;29.40;99.90;;;;;;5059475;28;20195;-77
2023/07/18 07:56:09;;;;;;;2.08;1.05;;;29.10;99.90;;;;;;5061320;28;20310;-77
2023/07/18 07:58:36;;;;;;;2.28;1.40;;;28.40;99.90;;;;;;5066204;28;20180;-76
2023/07/18 08:01:02;;;;;;;2.00;1.10;;;28.10;99.90;;;;;;5071409;28;20203;-75
2023/07/18 08:03:28;;;;;;;3.03;1.30;;;27.30;99.90;;;;;;5057752;28;20692;-78
2023/07/18 08:05:54;;;;;;;3.33;1.60;;;26.30;99.90;;;;;;5058420;28;20181;-77
2023/07/18 08:08:19;;;;;;;2.15;1.20;;;26.50;99.90;;;;;;5059479;28;20687;-77
2023/07/18 08:10:45;;;;;;;2.50;1.50;;;27.00;99.90;;;;;;5070791;28;20211;-74
2023/07/18 08:13:11;;;;;;;2.05;1.20;;;28.00;99.90;;;;;;5067797;28;20283;-76
2023/07/18 08:15:37;;;;;;;3.05;1.17;;;27.50;99.90;;;;;;5057527;28;20686;-80
2023/07/18 08:18:02;;;;;;;3.05;1.05;;;28.30;99.90;;;;;;5064288;28;20267;-78
2023/07/18 08:20:29;;;;;;;3.42;1.20;;;29.10;99.90;;;;;;5056052;28;20482;-76
2023/07/18 08:22:55;;;;;;;1.80;1.13;;;28.20;99.90;;;;;;5069165;28;20547;-79
2023/07/18 08:25:20;;;;;;;2.45;1.30;;;27.80;99.90;;;;;;5072160;28;20168;-78
2023/07/18 08:27:46;;;;;;;2.90;1.10;;;27.30;99.90;;;;;;5061311;28;20199;-78
2023/07/18 08:30:12;;;;;;;0.95;0.82;;;27.80;99.90;;;;;;5053969;28;20201;-75
2023/07/18 08:32:38;;;;;;;4.53;1.63;;;27.40;99.90;;;;;;5066094;28;20264;-78
2023/07/18 08:35:05;;;;;;;2.00;1.20;;;26.90;99.90;;;;;;5065400;28;20190;-75
2023/07/18 08:37:30;;;;;;;3.05;1.58;;;26.50;99.90;;;;;;5063433;28;20180;-78
2023/07/18 08:39:56;;;;;;;1.08;0.98;;;26.20;99.90;;;;;;5063528;28;20838;-78
2023/07/18 08:42:26;;;;;;;1.20;1.00;;;26.10;99.90;;;;;;5064431;28;20221;-78
2023/07/18 08:44:53;;;;;;;0.85;0.80;;;24.90;99.90;;;;;;5071840;28;20233;-76
2023/07/18 08:47:25;;;;;;;1.35;0.73;;;24.00;1.00;;;;;;5060887;28;20647;-77
2023/07/18 08:49:51;;;;;;;1.40;0.88;;;23.30;1.00;;;;;;5067021;28;20658;-75
2023/07/18 08:52:17;;;;;;;1.80;0.98;;;23.00;99.90;;;;;;5066270;28;20180;-72
2023/07/18 08:54:42;;;;;;;2.92;0.77;;;23.20;25.30;;;;;;5053553;28;20161;-72
2023/07/18 08:57:08;;;;;;;2.85;1.40;;;23.30;1.00;;;;;;5059461;28;20222;-72
2023/07/18 08:59:34;;;;;;;2.15;0.80;;;23.40;99.90;;;;;;5065634;28;20226;-72
2023/07/18 09:02:00;;;;;;;0.73;0.73;;;23.30;1.00;;;;;;5055404;28;20177;-73
2023/07/18 09:04:26;;;;;;;1.83;1.00;;;23.20;1.00;;;;;;5056912;28;20679;-73
2023/07/18 09:07:01;;;;;;;1.23;0.93;;;23.20;1.00;;;;;;5054326;28;20204;-73
2023/07/18 09:09:27;;;;;;;2.30;0.80;;;23.30;32.70;;;;;;5057385;28;20191;-74
2023/07/18 09:11:58;;;;;;;3.92;1.70;;;23.10;37.20;;;;;;5062211;28;20280;-73
2023/07/18 09:14:26;;;;;;;7.70;3.40;;;22.80;99.90;;;;;;5052228;28;20215;-74
2023/07/18 09:16:54;;;;;;;16.10;13.57;;;22.80;99.90;;;;;;5058833;28;20185;-75
2023/07/18 09:19:34;;;;;;;2.70;2.33;;;23.10;99.90;;;;;;5065524;28;20196;-74
2023/07/18 09:22:00;;;;;;;8.27;3.72;;;23.50;1.00;;;;;;5049047;28;20259;-74
2023/07/18 09:24:32;;;;;;;1.15;0.93;;;23.90;1.00;;;;;;5057510;28;20252;-72
2023/07/18 09:26:58;;;;;;;2.33;1.10;;;23.70;1.00;;;;;;5057764;28;20180;-73
2023/07/18 09:29:25;;;;;;;1.95;1.08;;;23.40;1.00;;;;;;5069450;28;20258;-74
2023/07/18 09:31:51;;;;;;;2.30;2.10;;;23.40;1.00;;;;;;5055707;28;20208;-74
2023/07/18 09:34:19;;;;;;;1.10;0.60;;;23.40;1.00;;;;;;5058062;28;20176;-74
2023/07/18 09:37:05;;;;;;;1.13;0.70;;;22.90;1.00;;;;;;5062339;28;20185;-73
2023/07/18 09:39:32;;;;;;;3.33;1.00;;;22.60;1.00;;;;;;5063172;28;20664;-74
2023/07/18 09:41:57;;;;;;;1.77;1.00;;;22.70;1.00;;;;;;5054552;28;20192;-72
2023/07/18 09:44:25;;;;;;;2.03;1.50;;;22.80;1.00;;;;;;5054751;28;20275;-73
2023/07/18 09:46:51;;;;;;;1.33;1.08;;;23.00;1.00;;;;;;5058523;28;20215;-71
2023/07/18 09:49:21;;;;;;;5.00;0.90;;;23.20;1.00;;;;;;5054135;28;20205;-72
2023/07/18 09:51:55;;;;;;;3.20;1.00;;;23.40;1.00;;;;;;5061886;28;20660;-71
2023/07/18 09:54:21;;;;;;;2.95;0.90;;;23.60;1.00;;;;;;5055926;28;20267;-72
2023/07/18 09:56:51;;;;;;;1.10;1.00;;;23.60;1.00;;;;;;5070051;28;20173;-73
2023/07/18 09:59:20;;;;;;;1.88;0.57;;;23.50;1.00;;;;;;5074807;28;20173;-74
2023/07/18 10:01:46;;;;;;;2.03;0.73;;;23.30;99.90;;;;;;5065049;28;20216;-75
2023/07/18 10:04:13;;;;;;;1.92;1.00;;;23.40;99.90;;;;;;5068475;28;20211;-74
2023/07/18 10:06:40;;;;;;;1.27;1.17;;;23.70;99.90;;;;;;5074742;28;20196;-76
2023/07/18 10:09:06;;;;;;;2.78;1.38;;;24.50;99.90;;;;;;5074210;28;20172;-71
2023/07/18 10:11:31;;;;;;;2.17;0.90;;;25.30;99.90;;;;;;5064837;28;20215;-74
2023/07/18 10:14:06;;;;;;;1.88;0.90;;;26.10;99.90;;;;;;5074366;28;20640;-73
2023/07/18 10:16:35;;;;;;;0.88;0.80;;;27.10;99.90;;;;;;5075532;28;20306;-74
2023/07/18 10:19:17;;;;;;;1.25;0.88;;;27.40;99.90;;;;;;5075006;28;20237;-75
2023/07/18 10:21:45;;;;;;;1.05;0.65;;;28.50;99.90;;;;;;5064433;28;20654;-75
2023/07/18 10:24:20;;;;;;;1.00;0.90;;;29.30;97.10;;;;;;5070119;28;20643;-75
2023/07/18 10:26:51;;;;;;;2.28;0.70;;;30.00;63.40;;;;;;5059025;28;20312;-74
2023/07/18 10:29:16;;;;;;;1.23;0.90;;;29.50;45.40;;;;;;5047932;28;20184;-76
2023/07/18 10:31:42;;;;;;;1.05;0.80;;;30.30;26.30;;;;;;5061495;28;20568;-76
2023/07/18 10:34:15;;;;;;;1.77;0.95;;;30.70;6.60;;;;;;5055291;28;20746;-75
2023/07/18 10:36:57;;;;;;;3.53;1.77;;;31.00;1.80;;;;;;5055213;28;20181;-75
2023/07/18 10:39:40;;;;;;;1.80;1.13;;;31.70;1.00;;;;;;5058861;28;20177;-74
2023/07/18 10:42:06;;;;;;;1.23;1.08;;;32.00;1.00;;;;;;5054389;28;20232;-75
2023/07/18 10:44:34;;;;;;;0.90;0.90;;;31.80;1.00;;;;;;5067196;28;20525;-74
2023/07/18 10:46:59;;;;;;;2.33;1.20;;;31.30;1.00;;;;;;5063821;28;20652;-75
2023/07/18 10:49:25;;;;;;;2.20;0.90;;;32.00;1.00;;;;;;5073821;28;20180;-75
2023/07/18 10:51:54;;;;;;;2.63;1.30;;;31.60;1.00;;;;;;5066132;28;20295;-75
2023/07/18 10:54:20;;;;;;;2.25;1.10;;;31.30;1.00;;;;;;5054881;28;20177;-75
2023/07/18 10:56:48;;;;;;;1.17;1.02;;;29.90;1.00;;;;;;5064742;28;20287;-74
2023/07/18 10:59:14;;;;;;;2.03;0.98;;;29.00;1.00;;;;;;5067410;28;20623;-75
2023/07/18 11:01:40;;;;;;;3.38;1.65;;;27.60;23.10;;;;;;5066970;28;20183;-75
2023/07/18 11:04:07;;;;;;;2.83;1.27;;;26.70;99.90;;;;;;5053552;28;20712;-75
2023/07/18 11:06:34;;;;;;;2.80;1.27;;;27.00;99.90;;;;;;5063601;28;20223;-75
2023/07/18 11:08:59;;;;;;;3.05;1.60;;;27.60;86.20;;;;;;5058355;28;20200;-76
2023/07/18 11:11:25;;;;;;;1.73;1.30;;;28.10;73.30;;;;;;5066222;28;20223;-75
2023/07/18 11:13:50;;;;;;;2.10;1.40;;;28.20;66.80;;;;;;5069547;28;20230;-75
2023/07/18 11:16:16;;;;;;;3.33;1.15;;;28.20;71.60;;;;;;5071068;28;20227;-76
2023/07/18 11:18:44;;;;;;;3.28;1.40;;;28.60;62.40;;;;;;5054500;28;20178;-75
2023/07/18 11:21:11;;;;;;;1.73;0.90;;;28.30;65.10;;;;;;5057796;28;20188;-76
2023/07/18 11:23:37;;;;;;;2.33;1.00;;;28.60;69.10;;;;;;5053558;28;20259;-75
2023/07/18 11:26:14;;;;;;;2.78;1.23;;;28.30;58.30;;;;;;5056497;28;20786;-74
2023/07/18 11:28:41;;;;;;;2.85;1.10;;;28.20;75.00;;;;;;5056198;28;20184;-76
2023/07/18 11:31:26;;;;;;;1.58;1.10;;;27.80;88.20;;;;;;5054775;28;20215;-76
2023/07/18 11:33:53;;;;;;;2.83;1.35;;;28.00;95.50;;;;;;5054349;28;20173;-76
2023/07/18 11:36:21;;;;;;;1.20;1.10;;;28.20;96.80;;;;;;5061681;28;20184;-76
2023/07/18 11:38:49;;;;;;;2.65;1.50;;;29.00;88.50;;;;;;5062411;28;20173;-76
2023/07/18 11:41:30;;;;;;;5.50;1.50;;;29.80;63.00;;;;;;5064647;28;20228;-77
2023/07/18 11:43:55;;;;;;;4.05;1.80;;;30.00;52.20;;;;;;5045875;28;20238;-76
2023/07/18 11:46:37;;;;;;;2.72;1.60;;;29.90;47.40;;;;;;5068803;28;20621;-80
2023/07/18 11:49:03;;;;;;;3.08;1.58;;;29.50;88.30;;;;;;5057191;28;20235;-76
2023/07/18 11:51:50;;;;;;;3.75;1.55;;;29.30;64.30;;;;;;5053277;28;20282;-77
2023/07/18 11:54:16;;;;;;;1.83;1.48;;;29.60;77.00;;;;;;5068704;28;20182;-75
2023/07/18 11:56:42;;;;;;;3.88;1.70;;;29.10;60.20;;;;;;5056804;28;20515;-77
2023/07/18 11:59:08;;;;;;;3.33;1.70;;;28.90;90.00;;;;;;5058415;28;20230;-76
2023/07/18 12:01:33;;;;;;;3.83;1.88;;;29.10;86.80;;;;;;5062609;28;20248;-74
2023/07/18 12:03:59;;;;;;;2.53;1.70;;;28.60;84.60;;;;;;5063166;28;20176;-75
2023/07/18 12:06:25;;;;;;;2.28;1.42;;;28.70;80.00;;;;;;5065587;28;20275;-74
2023/07/18 12:08:52;;;;;;;2.78;1.50;;;28.90;77.60;;;;;;5055367;28;20188;-75
2023/07/18 12:11:18;;;;;;;2.10;1.80;;;28.30;93.60;;;;;;5067247;28;20563;-75
2023/07/18 12:13:44;;;;;;;4.55;1.80;;;28.00;99.90;;;;;;5050823;28;20188;-75
2023/07/18 12:16:09;;;;;;;2.75;2.00;;;28.10;99.90;;;;;;5060671;28;20196;-77
2023/07/18 12:18:36;;;;;;;1.77;1.65;;;27.90;99.90;;;;;;5064896;28;20630;-77
2023/07/18 12:21:01;;;;;;;3.30;2.03;;;27.30;99.90;;;;;;5060151;28;20184;-79
2023/07/18 12:23:27;;;;;;;1.70;1.60;;;26.80;99.90;;;;;;5056346;28;20188;-78
2023/07/18 12:25:53;;;;;;;2.05;1.85;;;26.40;99.90;;;;;;5065989;28;20181;-78
2023/07/18 12:28:18;;;;;;;3.72;2.20;;;26.10;99.90;;;;;;5066270;28;20649;-77
2023/07/18 12:30:44;;;;;;;3.05;1.88;;;25.90;99.90;;;;;;5056010;28;20209;-75
2023/07/18 12:33:09;;;;;;;2.17;1.98;;;26.10;99.90;;;;;;5064528;28;20259;-75
2023/07/18 12:35:36;;;;;;;3.05;1.90;;;26.30;99.90;;;;;;5062092;28;20173;-76
2023/07/18 12:38:03;;;;;;;2.20;2.00;;;26.50;99.90;;;;;;5062338;28;20193;-75
2023/07/18 12:40:28;;;;;;;2.75;1.95;;;26.30;99.90;;;;;;5063769;28;20255;-75
2023/07/18 12:42:54;;;;;;;2.20;1.80;;;25.90;99.90;;;;;;5054009;28;20192;-77
2023/07/18 12:45:20;;;;;;;2.60;1.80;;;26.10;99.90;;;;;;5066461;28;20546;-75
2023/07/18 12:47:45;;;;;;;2.22;1.90;;;25.90;99.90;;;;;;5061656;28;20223;-75
2023/07/18 12:50:11;;;;;;;5.05;2.25;;;26.00;99.90;;;;;;5053084;28;20637;-74